Time;durP1;ratioP1;P1;durP2;ratioP2;P2;SDS_P1;SDS_P2;PMS_P1;PMS_P2;Temp;Humidity;BMP_temperature;BMP_pressure;BME280_temperature;BME280_humidity;BME280_pressure;Samples;Min_cycle;Max_cycle;Signal;HPM_P1;HPM_P2
2022/04/17 00:02:24;;;;;;;17.17;15.93;;;;;;;22.30;30.03;94850.47;6187890;28;103300;-55
2022/04/17 00:05:26;;;;;;;17.30;15.90;;;;;;;22.28;30.70;94844.66;6188099;28;104083;-55
2022/04/17 00:08:27;;;;;;;16.70;15.43;;;;;;;22.29;30.03;94846.22;6176305;28;103346;-55
2022/04/17 00:11:29;;;;;;;16.20;15.00;;;;;;;22.29;30.21;94846.22;6185461;28;104342;-55
2022/04/17 00:14:31;;;;;;;16.30;15.00;;;;;;;22.28;30.68;94850.78;6186416;28;104090;-55
2022/04/17 00:17:33;;;;;;;16.40;15.20;;;;;;;22.27;30.39;94837.75;6187331;28;102782;-55
2022/04/17 00:20:38;;;;;;;15.20;14.10;;;;;;;22.26;30.20;94841.53;6176230;28;103950;-55
2022/04/17 00:23:39;;;;;;;16.33;15.03;;;;;;;22.26;30.18;94838.84;6187599;28;103573;-55
2022/04/17 00:26:41;;;;;;;16.20;15.00;;;;;;;22.27;30.55;94835.09;6187608;28;104297;-55
2022/04/17 00:29:44;;;;;;;15.40;14.30;;;;;;;22.27;30.16;94830.53;6182368;28;103883;-56
2022/04/17 00:32:45;;;;;;;14.40;13.40;;;;;;;22.27;30.11;94816.44;6182326;28;103267;-56
2022/04/17 00:35:47;;;;;;;15.50;14.40;;;;;;;22.26;30.53;94814.88;6186996;28;104579;-55
2022/04/17 00:38:49;;;;;;;15.33;14.17;;;;;;;22.24;30.45;94822.38;6186801;28;103222;-56
2022/04/17 00:41:50;;;;;;;14.60;13.50;;;;;;;22.26;30.49;94825.53;6175273;28;103611;-55
2022/04/17 00:44:53;;;;;;;14.70;13.60;;;;;;;22.25;30.29;94819.41;6184511;28;103077;-55
2022/04/17 00:47:55;;;;;;;14.03;12.93;;;;;;;22.25;30.31;94815.97;6186741;28;104194;-56
2022/04/17 00:50:57;;;;;;;14.57;13.57;;;;;;;22.24;30.33;94809.06;6186089;28;102945;-55
2022/04/17 00:54:02;;;;;;;15.00;13.80;;;;;;;22.24;30.47;94807.19;6175139;28;103902;-56
2022/04/17 00:57:05;;;;;;;14.80;13.70;;;;;;;22.25;30.08;94813.28;6186785;28;103159;-55
2022/04/17 01:00:07;;;;;;;14.67;13.57;;;;;;;22.23;30.38;94800.28;6185756;28;103250;-55
2022/04/17 01:03:12;;;;;;;14.03;13.03;;;;;;;22.23;30.10;94802.94;6187060;28;103998;-55
2022/04/17 01:06:14;;;;;;;13.10;12.10;;;;;;;22.24;30.30;94795.72;6177364;28;104044;-55
2022/04/17 01:09:16;;;;;;;13.27;12.27;;;;;;;22.24;30.57;94793.06;6187086;28;103144;-52
2022/04/17 01:12:18;;;;;;;13.30;12.37;;;;;;;22.22;30.48;94793.38;6185399;28;104092;-56
2022/04/17 01:15:20;;;;;;;13.63;12.57;;;;;;;22.21;30.35;94785.69;6176904;28;103985;-54
2022/04/17 01:18:22;;;;;;;13.00;12.00;;;;;;;22.23;30.53;94786.97;6185008;28;103338;-56
2022/04/17 01:21:24;;;;;;;13.80;12.70;;;;;;;22.22;30.32;94784.59;6185812;28;103120;-56
2022/04/17 01:27:46;;;;;;;13.60;12.60;;;;;;;22.21;30.56;94794.47;6174777;28;104049;-55
2022/04/17 01:30:55;;;;;;;13.30;12.30;;;;;;;22.21;30.76;94788.38;6185809;28;103003;-56
2022/04/17 01:33:57;;;;;;;12.33;11.43;;;;;;;22.21;30.57;94791.81;6186027;28;104269;-56
2022/04/17 01:37:00;;;;;;;12.90;11.90;;;;;;;22.19;30.47;94793.22;6185527;28;103300;-56
2022/04/17 01:40:03;;;;;;;12.37;11.47;;;;;;;22.20;30.28;94792.91;6175457;28;103701;-55
2022/04/17 01:43:08;;;;;;;11.87;11.03;;;;;;;22.20;30.57;94795.59;6185036;28;104251;-56
2022/04/17 01:46:10;;;;;;;11.80;10.90;;;;;;;22.22;30.37;94792.59;6185588;28;102754;-56
2022/04/17 01:49:15;;;;;;;12.47;11.57;;;;;;;22.21;30.16;94791.03;6180399;28;103020;-56
2022/04/17 01:52:17;;;;;;;13.37;12.27;;;;;;;22.20;30.33;94794.78;6180955;28;103999;-56
2022/04/17 01:55:19;;;;;;;12.23;11.33;;;;;;;22.21;30.62;94796.38;6185937;28;103883;-55
2022/04/17 01:58:21;;;;;;;12.40;11.50;;;;;;;22.19;30.39;94791.34;6185603;28;103415;-56
2022/04/17 02:01:23;;;;;;;11.73;10.83;;;;;;;22.20;30.30;94790.25;6174917;28;103831;-55
2022/04/17 02:04:27;;;;;;;11.83;11.00;;;;;;;22.20;30.31;94790.25;6185102;28;103214;-55
2022/04/17 02:07:28;;;;;;;12.10;11.20;;;;;;;22.18;30.23;94796.97;6185597;28;104022;-56
2022/04/17 02:10:30;;;;;;;11.47;10.67;;;;;;;22.20;30.42;94792.91;6183582;28;103146;-55
2022/04/17 02:13:34;;;;;;;10.60;9.90;;;;;;;22.21;30.54;94769.72;6173089;28;103612;-56
2022/04/17 02:16:37;;;;;;;11.23;10.43;;;;;;;22.20;30.46;94770.81;6185457;28;103094;-55
2022/04/17 02:19:38;;;;;;;10.77;10.00;;;;;;;22.19;30.24;94774.56;6184756;28;103432;-56
2022/04/17 02:22:40;;;;;;;10.37;9.50;;;;;;;22.18;30.31;94756.97;6184909;28;104234;-55
2022/04/17 02:25:42;;;;;;;10.20;9.50;;;;;;;22.18;30.32;94759.66;6177074;28;104125;-55
2022/04/17 02:28:45;;;;;;;11.77;10.77;;;;;;;22.19;30.34;94762.03;6184700;28;103277;-56
2022/04/17 02:31:47;;;;;;;10.47;9.67;;;;;;;22.17;30.61;94758.88;6184875;28;102841;-55
2022/04/17 02:34:49;;;;;;;10.40;9.60;;;;;;;22.15;30.25;94763.72;6177799;28;104280;-56
2022/04/17 02:37:50;;;;;;;10.77;9.97;;;;;;;22.19;30.20;94764.69;6187832;28;103027;-56
2022/04/17 02:40:53;;;;;;;10.60;9.80;;;;;;;22.16;30.31;94757.31;6189232;28;104057;-56
2022/04/17 02:43:55;;;;;;;10.57;9.80;;;;;;;22.17;30.48;94756.19;6187999;28;103145;-56
2022/04/17 02:50:19;;;;;;;10.47;9.67;;;;;;;22.17;30.16;94758.09;6188726;28;103061;-55
2022/04/17 02:53:21;;;;;;;10.70;9.90;;;;;;;22.16;30.22;94759.19;6189056;28;103389;-56
2022/04/17 02:56:23;;;;;;;8.90;8.30;;;;;;;22.16;30.35;94761.84;6188523;28;103094;-56
2022/04/17 02:59:25;;;;;;;10.60;9.80;;;;;;;22.16;30.24;94754.63;6178772;28;103223;-55
2022/04/17 03:05:47;;;;;;;8.67;8.03;;;;;;;22.16;30.52;94751.19;6188493;28;103050;-56
2022/04/17 03:08:49;;;;;;;9.40;8.70;;;;;;;22.18;30.38;94756.97;6178872;28;103188;-56
2022/04/17 03:11:51;;;;;;;9.80;9.10;;;;;;;22.16;30.72;94757.31;6187231;28;103198;-55
2022/04/17 03:14:52;;;;;;;8.63;8.03;;;;;;;22.17;30.17;94758.09;6187773;28;103921;-56
2022/04/17 03:17:54;;;;;;;9.90;9.20;;;;;;;22.15;30.35;94761.06;6188445;28;103081;-56
2022/04/17 03:20:58;;;;;;;9.00;8.37;;;;;;;22.16;30.23;94751.19;6175540;28;103564;-55
2022/04/17 03:24:00;;;;;;;9.10;8.40;;;;;;;22.15;30.38;94750.41;6188567;28;104109;-56
2022/04/17 03:27:02;;;;;;;8.90;8.20;;;;;;;22.15;30.59;94750.41;6188342;28;103087;-56
2022/04/17 03:30:04;;;;;;;8.77;8.13;;;;;;;22.15;30.17;94755.72;6188490;28;104094;-56
2022/04/17 03:33:06;;;;;;;9.50;8.80;;;;;;;22.14;30.69;94748.06;6177764;28;104158;-54
2022/04/17 03:36:08;;;;;;;9.13;8.43;;;;;;;22.13;30.50;94752.59;6188255;28;103174;-55
2022/04/17 03:39:09;;;;;;;8.83;8.23;;;;;;;22.14;30.68;94762.16;6188092;28;103234;-55
2022/04/17 03:42:12;;;;;;;8.70;8.10;;;;;;;22.14;30.64;94767.50;6182743;28;104019;-54
2022/04/17 03:45:17;;;;;;;8.67;8.00;;;;;;;22.13;30.37;94773.13;6181242;28;104052;-55
2022/04/17 03:48:19;;;;;;;8.30;7.77;;;;;;;22.15;30.85;94771.72;6187321;28;103367;-56
2022/04/17 03:51:20;;;;;;;8.00;7.40;;;;;;;22.14;30.29;94785.38;6188165;28;103982;-54
2022/04/17 03:54:22;;;;;;;8.10;7.40;;;;;;;22.13;30.72;94773.91;6177605;28;102746;-55
2022/04/17 03:57:24;;;;;;;8.50;7.90;;;;;;;22.13;30.64;94779.25;6186540;28;103015;-55
2022/04/17 04:00:26;;;;;;;8.03;7.43;;;;;;;22.12;30.76;94772.34;6187936;28;104113;-59
2022/04/17 04:03:28;;;;;;;7.13;6.63;;;;;;;22.11;30.79;94774.25;6186895;28;103031;-56
2022/04/17 04:06:29;;;;;;;7.93;7.33;;;;;;;22.10;30.68;94767.34;6177346;28;103109;-55
2022/04/17 04:09:31;;;;;;;7.40;6.90;;;;;;;22.11;30.64;94770.78;6188020;28;103118;-55
2022/04/17 04:12:37;;;;;;;7.53;7.03;;;;;;;22.12;30.38;94772.34;6186705;28;102998;-55
2022/04/17 04:15:39;;;;;;;8.00;7.40;;;;;;;22.12;30.60;94780.34;6186344;28;103008;-56
2022/04/17 04:18:41;;;;;;;7.33;6.83;;;;;;;22.11;30.73;94771.56;6176389;28;104385;-54
2022/04/17 04:21:48;;;;;;;7.20;6.70;;;;;;;22.11;30.30;94774.25;6187196;28;102805;-55
2022/04/17 04:24:50;;;;;;;8.17;7.50;;;;;;;22.09;31.00;94767.66;6187484;28;104251;-56
2022/04/17 04:31:15;;;;;;;7.20;6.70;;;;;;;22.11;30.39;94782.22;6185665;28;104245;-56
2022/04/17 04:34:17;;;;;;;7.17;6.67;;;;;;;22.10;30.85;94775.34;6186782;28;104000;-56
2022/04/17 04:37:18;;;;;;;7.20;6.70;;;;;;;22.07;30.50;94769.84;6187122;28;102753;-56
2022/04/17 04:40:20;;;;;;;7.00;6.50;;;;;;;22.08;31.00;94774.88;6175572;28;103279;-56
2022/04/17 04:43:22;;;;;;;7.33;6.80;;;;;;;22.07;30.36;94770.63;6186599;28;102965;-56
2022/04/17 04:46:24;;;;;;;6.80;6.30;;;;;;;22.09;30.84;94767.66;6186246;28;103073;-55
2022/04/17 04:49:32;;;;;;;6.60;6.20;;;;;;;22.08;30.89;94769.53;6186517;28;103321;-56
2022/04/17 04:52:35;;;;;;;6.57;6.07;;;;;;;22.09;30.62;94759.66;6176326;28;104343;-54
2022/04/17 04:55:37;;;;;;;6.33;5.93;;;;;;;22.11;30.60;94765.47;6186012;28;103476;-56
2022/04/17 04:58:40;;;;;;;6.93;6.43;;;;;;;22.08;30.45;94760.75;6186599;28;103280;-56
2022/04/17 05:01:42;;;;;;;7.17;6.67;;;;;;;22.06;30.65;94763.75;6181604;28;103584;-56
2022/04/17 05:04:44;;;;;;;6.60;6.10;;;;;;;22.07;31.01;94749.31;6180579;28;104272;-57
2022/04/17 05:07:46;;;;;;;6.63;6.13;;;;;;;22.07;30.58;94756.53;6186878;28;104003;-56
2022/04/17 05:10:47;;;;;;;6.63;6.13;;;;;;;22.07;30.79;94753.84;6185724;28;103223;-55
2022/04/17 05:13:49;;;;;;;6.60;6.10;;;;;;;22.07;30.96;94761.84;6176264;28;103139;-53
2022/04/17 05:16:51;;;;;;;5.90;5.50;;;;;;;22.05;30.60;94766.72;6185061;28;103169;-55
2022/04/17 05:19:53;;;;;;;6.40;5.90;;;;;;;22.05;30.65;94761.38;6186501;28;103195;-55
2022/04/17 05:23:03;;;;;;;5.90;5.50;;;;;;;22.03;30.67;94764.38;6186388;28;103415;-56
2022/04/17 05:26:05;;;;;;;6.40;6.00;;;;;;;22.06;30.83;94769.06;6175156;28;103377;-56
2022/04/17 05:29:07;;;;;;;6.47;5.97;;;;;;;22.04;31.01;94768.59;6186075;28;102959;-56
2022/04/17 05:32:09;;;;;;;6.17;5.77;;;;;;;22.05;31.05;94767.50;6185649;28;103774;-56
2022/04/17 05:35:11;;;;;;;6.30;5.90;;;;;;;22.04;30.89;94771.25;6186292;28;103995;-56
2022/04/17 05:38:13;;;;;;;5.97;5.57;;;;;;;22.07;30.91;94761.84;6175319;28;103004;-56
2022/04/17 05:41:15;;;;;;;6.07;5.67;;;;;;;22.04;30.95;94765.94;6185434;28;103160;-56
2022/04/17 05:44:17;;;;;;;5.87;5.47;;;;;;;22.04;31.03;94765.16;6185583;28;103034;-56
2022/04/17 05:47:19;;;;;;;6.63;6.13;;;;;;;22.10;30.91;94769.22;6180171;28;102985;-58
2022/04/17 05:50:21;;;;;;;5.63;5.23;;;;;;;22.21;30.97;94772.38;6180373;28;103020;-58
2022/04/17 05:53:22;;;;;;;5.97;5.57;;;;;;;22.26;30.73;94778.31;6185670;28;103429;-57
2022/04/17 05:56:24;;;;;;;6.00;5.60;;;;;;;22.31;31.06;94775.50;6184835;28;103296;-58
2022/04/17 05:59:32;;;;;;;5.80;5.40;;;;;;;22.30;31.05;94765.94;6175759;28;102842;-57
2022/04/17 06:02:35;;;;;;;5.93;5.50;;;;;;;22.34;31.29;94758.88;6185413;28;103140;-58
2022/04/17 06:05:37;;;;;;;6.17;5.70;;;;;;;22.34;31.28;94763.41;6185730;28;103301;-58
2022/04/17 06:08:39;;;;;;;6.07;5.57;;;;;;;22.34;31.35;94753.53;6185558;28;103276;-58
2022/04/17 06:11:41;;;;;;;5.27;4.87;;;;;;;22.38;31.84;94751.06;6179533;28;104392;-58
2022/04/17 06:14:42;;;;;;;5.70;5.30;;;;;;;22.29;32.01;94744.94;6189442;28;103179;-56
2022/04/17 06:17:44;;;;;;;5.83;5.33;;;;;;;22.24;31.67;94743.22;6188882;28;104052;-56
2022/04/17 06:20:46;;;;;;;6.00;5.50;;;;;;;22.23;31.53;94751.53;6190054;28;103507;-56
2022/04/17 06:23:48;;;;;;;5.57;5.17;;;;;;;22.15;31.89;94745.06;6179231;28;103329;-55
2022/04/17 06:26:49;;;;;;;5.60;5.20;;;;;;;22.16;31.58;94745.84;6189281;28;103065;-56
2022/04/17 06:29:51;;;;;;;6.10;5.70;;;;;;;22.17;31.60;94742.88;6189757;28;104167;-56
2022/04/17 06:32:53;;;;;;;5.33;4.93;;;;;;;22.16;32.03;94751.19;6158981;28;104282;-56
2022/04/17 06:35:55;;;;;;;4.80;4.50;;;;;;;22.13;31.53;94757.16;6159488;28;103315;-56
2022/04/17 06:38:56;;;;;;;5.57;5.17;;;;;;;22.13;31.55;94751.81;6164724;28;104159;-54
2022/04/17 06:41:58;;;;;;;5.33;4.93;;;;;;;22.13;31.41;94752.59;6164619;28;103297;-56
2022/04/17 06:45:00;;;;;;;5.37;4.97;;;;;;;22.15;31.72;94750.41;6153778;28;103713;-55
2022/04/17 06:48:15;;;;;;;5.53;5.13;;;;;;;22.13;31.63;94752.59;6163947;28;104169;-56
2022/04/17 06:51:22;;;;;;;5.07;4.70;;;;;;;22.13;31.69;94757.16;6164805;28;103021;-56
2022/04/17 06:54:24;;;;;;;4.60;4.30;;;;;;;22.10;31.41;94754.00;6163589;28;103046;-55
2022/04/17 06:57:33;;;;;;;5.50;5.10;;;;;;;22.08;31.38;94750.88;6151973;28;103310;-54
2022/04/17 07:00:36;;;;;;;5.60;5.20;;;;;;;22.10;31.85;94748.69;6164211;28;104393;-59
2022/04/17 07:03:38;;;;;;;4.93;4.53;;;;;;;22.10;31.69;94748.69;6164369;28;103316;-56
2022/04/17 07:06:39;;;;;;;5.17;4.80;;;;;;;22.09;31.90;94752.44;6159293;28;103832;-56
2022/04/17 07:09:41;;;;;;;5.10;4.80;;;;;;;22.11;31.75;94754.81;6158063;28;103473;-55
2022/04/17 07:12:44;;;;;;;4.70;4.40;;;;;;;22.09;31.25;94757.00;6164016;28;103092;-55
2022/04/17 07:15:46;;;;;;;4.60;4.23;;;;;;;22.07;31.61;94753.84;6163393;28;103620;-56
2022/04/17 07:18:48;;;;;;;5.20;4.80;;;;;;;22.09;31.81;94755.13;6153216;28;104213;-55
2022/04/17 07:21:50;;;;;;;4.90;4.50;;;;;;;22.07;31.28;94759.19;6163912;28;104211;-54
2022/04/17 07:24:54;;;;;;;4.70;4.30;;;;;;;22.07;31.70;94762.63;6163204;28;102982;-56
2022/04/17 07:27:56;;;;;;;4.40;4.10;;;;;;;22.06;31.18;94758.41;6163714;28;103349;-55
2022/04/17 07:30:57;;;;;;;5.17;4.80;;;;;;;22.04;31.87;94757.94;6161630;28;104219;-58
2022/04/17 07:33:59;;;;;;;4.70;4.40;;;;;;;22.17;31.27;94763.41;6188920;28;104179;-58
2022/04/17 07:37:01;;;;;;;8.10;7.50;;;;;;;22.14;31.81;94756.84;6189133;28;104440;-57
2022/04/17 07:40:15;;;;;;;9.73;9.03;;;;;;;22.16;31.48;94756.50;6187710;28;102977;-57
2022/04/17 07:43:17;;;;;;;10.00;9.17;;;;;;;22.19;31.99;94758.59;6176923;28;103998;-57
2022/04/17 07:46:18;;;;;;;11.77;10.77;;;;;;;22.20;32.05;94762.81;6187595;28;104119;-57
2022/04/17 07:49:21;;;;;;;12.13;11.13;;;;;;;22.20;32.30;94760.16;6187468;28;103027;-57
2022/04/17 07:52:23;;;;;;;12.23;11.33;;;;;;;22.20;32.50;94758.25;6180564;28;103159;-53
2022/04/17 07:55:25;;;;;;;12.30;11.40;;;;;;;22.20;32.30;94749.50;6185869;28;103351;-57
2022/04/17 07:58:44;;;;;;;12.30;11.40;;;;;;;22.18;32.67;94749.81;6186528;28;104314;-57
2022/04/17 08:01:46;;;;;;;12.73;11.73;;;;;;;22.27;32.68;94744.47;6187445;28;104170;-58
2022/04/17 08:04:52;;;;;;;13.43;12.43;;;;;;;22.26;32.56;94734.91;6179001;28;105193;-55
2022/04/17 08:07:53;;;;;;;12.67;11.77;;;;;;;22.21;32.32;94745.72;6186717;28;103039;-55
2022/04/17 08:10:55;;;;;;;12.47;11.47;;;;;;;22.19;32.71;94747.91;6187774;28;103327;-56
2022/04/17 08:13:57;;;;;;;12.83;11.73;;;;;;;22.17;32.50;94750.09;6186977;28;103955;-56
2022/04/17 08:16:59;;;;;;;12.13;11.23;;;;;;;22.17;32.75;94742.88;6176038;28;103945;-56
2022/04/17 08:20:01;;;;;;;11.67;10.77;;;;;;;22.15;32.91;94742.41;6186631;28;103130;-56
2022/04/17 08:23:02;;;;;;;13.43;12.27;;;;;;;22.14;32.79;94746.16;6186814;28;103159;-56
2022/04/17 08:26:07;;;;;;;12.23;11.33;;;;;;;22.13;32.78;94741.94;6182525;28;104017;-56
2022/04/17 08:29:10;;;;;;;11.80;10.90;;;;;;;22.14;32.53;94740.06;6181763;28;103323;-56
2022/04/17 08:32:11;;;;;;;11.20;10.30;;;;;;;22.11;32.24;94739.59;6187153;28;104624;-57
2022/04/17 08:35:13;;;;;;;11.63;10.73;;;;;;;22.13;32.55;94741.16;6187210;28;103189;-56
2022/04/17 08:38:16;;;;;;;11.40;10.50;;;;;;;22.09;32.34;94743.66;6175780;28;103924;-55
2022/04/17 08:41:20;;;;;;;10.93;10.13;;;;;;;22.09;32.73;94739.13;6187675;28;103260;-55
2022/04/17 08:44:22;;;;;;;11.07;10.27;;;;;;;22.13;32.21;94741.16;6186865;28;103166;-55
2022/04/17 08:47:28;;;;;;;10.67;9.87;;;;;;;22.11;32.09;94750.25;6202383;28;102990;-55
2022/04/17 08:50:31;;;;;;;10.80;10.00;;;;;;;22.13;31.88;94747.28;6176531;28;105690;-56
2022/04/17 08:53:36;;;;;;;11.10;10.20;;;;;;;22.11;32.50;94752.13;6186085;28;103290;-56
2022/04/17 08:56:38;;;;;;;10.50;9.70;;;;;;;22.09;32.20;94746.34;6185656;28;103562;-56
2022/04/17 08:59:39;;;;;;;10.03;9.27;;;;;;;22.11;32.22;94749.47;6185870;28;103521;-54
2022/04/17 09:02:42;;;;;;;9.70;9.00;;;;;;;22.10;32.19;94743.34;6175412;28;103058;-56
2022/04/17 09:05:44;;;;;;;8.67;8.00;;;;;;;22.09;32.11;94736.47;6186511;28;103959;-56
2022/04/17 09:09:06;;;;;;;9.50;8.77;;;;;;;22.12;32.06;94732.38;6185722;28;104234;-54
2022/04/17 09:12:07;;;;;;;9.30;8.60;;;;;;;22.10;32.00;94732.69;6176507;28;103396;-57
2022/04/17 09:15:14;;;;;;;9.37;8.63;;;;;;;22.09;31.83;94731.13;6185523;28;104145;-55
2022/04/17 09:18:17;;;;;;;9.20;8.50;;;;;;;22.07;32.43;94728.00;6186122;28;103272;-56
2022/04/17 09:21:29;;;;;;;9.50;8.80;;;;;;;22.10;31.85;94734.56;6185299;28;102773;-56
2022/04/17 09:24:36;;;;;;;8.90;8.30;;;;;;;22.07;32.32;94717.34;6175339;28;103201;-57
2022/04/17 09:27:41;;;;;;;9.20;8.57;;;;;;;22.09;31.92;94714.34;6186203;28;104135;-55
2022/04/17 09:30:45;;;;;;;9.07;8.37;;;;;;;22.09;32.30;94711.69;6185964;28;104095;-57
2022/04/17 09:33:50;;;;;;;9.07;8.37;;;;;;;22.08;31.94;94705.59;6186105;28;102948;-57
2022/04/17 09:36:55;;;;;;;9.07;8.40;;;;;;;22.08;32.18;94702.91;6177266;28;103872;-57
2022/04/17 09:40:07;;;;;;;9.30;8.60;;;;;;;22.16;32.54;94687.22;6185448;28;103311;-58
2022/04/17 09:43:12;;;;;;;14.90;13.63;;;;;;;22.25;32.77;94683.47;6185754;28;104059;-56
2022/04/17 09:46:14;;;;;;;19.93;18.40;;;;;;;22.23;32.62;94684.88;6167339;28;103611;-58
2022/04/17 09:49:16;;;;;;;18.63;17.17;;;;;;;22.18;33.17;94685.03;6185013;28;103215;-53
2022/04/17 09:52:19;;;;;;;17.87;13.97;;;;;;;22.13;33.68;94693.19;6178368;28;103106;-57
2022/04/17 09:55:27;;;;;;;14.37;12.90;;;;;;;22.05;33.33;94686.78;6184432;28;104280;-57
2022/04/17 09:58:30;;;;;;;12.90;11.60;;;;;;;22.02;34.13;94692.75;6172916;28;103822;-56
2022/04/17 10:01:32;;;;;;;8.87;8.07;;;;;;;22.08;34.40;94680.81;6171564;28;103078;-56
2022/04/17 10:04:37;;;;;;;10.77;9.83;;;;;;;22.19;33.93;94670.63;6183277;28;102784;-57
2022/04/17 10:07:41;;;;;;;8.50;7.80;;;;;;;22.23;34.64;94674.22;6175445;28;104011;-58
2022/04/17 10:10:43;;;;;;;10.90;10.00;;;;;;;22.23;34.97;94671.56;6158240;28;103194;-57
2022/04/17 10:13:46;;;;;;;8.63;7.83;;;;;;;22.24;35.14;94671.25;6183290;28;103143;-56
2022/04/17 10:16:50;;;;;;;9.03;8.23;;;;;;;22.19;34.68;94668.75;6164811;28;104037;-56
2022/04/17 10:19:54;;;;;;;10.00;8.50;;;;;;;22.08;34.75;94667.50;6175434;28;104096;-56
2022/04/17 10:23:03;;;;;;;7.27;6.67;;;;;;;22.06;35.18;94667.81;6171260;28;104316;-57
2022/04/17 10:26:04;;;;;;;6.53;6.03;;;;;;;22.03;35.33;94665.00;6183215;28;103356;-58
2022/04/17 10:29:12;;;;;;;7.60;7.00;;;;;;;21.99;34.80;94661.38;6166232;28;103993;-57
2022/04/17 10:32:33;;;;;;;10.00;7.00;;;;;;;22.01;35.99;94667.16;6154056;28;103295;-58
2022/04/17 10:35:56;;;;;;;7.60;6.07;;;;;;;22.03;34.87;94663.13;6183746;28;104295;-54
2022/04/17 10:39:09;;;;;;;6.20;5.70;;;;;;;21.99;34.52;94662.16;6181901;28;103518;-57
2022/04/17 10:42:11;;;;;;;5.00;4.60;;;;;;;21.92;35.23;94655.75;6174899;28;104007;-57
2022/04/17 10:45:13;;;;;;;5.23;4.30;;;;;;;21.93;35.76;94652.75;6169335;28;103504;-56
2022/04/17 10:48:26;;;;;;;7.90;4.50;;;;;;;21.96;35.10;94651.34;6176736;28;104229;-56
2022/04/17 10:51:30;;;;;;;4.73;4.33;;;;;;;22.01;35.88;94640.53;6166302;28;104290;-57
2022/04/17 10:54:52;;;;;;;6.93;4.60;;;;;;;22.13;36.01;94637.22;6163605;28;104428;-56
2022/04/17 10:57:55;;;;;;;5.03;4.63;;;;;;;22.17;36.10;94635.50;6188084;28;103217;-57
2022/04/17 11:00:57;;;;;;;5.67;5.07;;;;;;;22.21;36.25;94639.13;6171178;28;103778;-57
2022/04/17 11:04:15;;;;;;;6.30;5.03;;;;;;;22.26;36.54;94644.28;6179066;28;103286;-57
2022/04/17 11:07:17;;;;;;;4.93;4.50;;;;;;;22.29;36.37;94638.31;6163790;28;104298;-57
2022/04/17 11:10:25;;;;;;;6.20;4.53;;;;;;;22.32;36.64;94643.00;6177429;28;104066;-57
2022/04/17 11:13:27;;;;;;;6.30;4.40;;;;;;;22.34;36.23;94633.56;6163448;28;103989;-57
2022/04/17 11:16:29;;;;;;;4.87;4.40;;;;;;;22.33;36.33;94631.22;6177047;28;104131;-56
2022/04/17 11:19:33;;;;;;;4.93;4.53;;;;;;;22.33;36.61;94629.34;6160811;28;103541;-55
2022/04/17 11:22:37;;;;;;;4.17;3.83;;;;;;;22.35;36.48;94642.38;6180222;28;103029;-57
2022/04/17 11:25:50;;;;;;;6.60;4.30;;;;;;;22.35;36.80;94647.72;6165837;28;103821;-57
2022/04/17 11:28:58;;;;;;;4.80;4.17;;;;;;;22.34;36.74;94646.13;6153048;28;103531;-56
2022/04/17 11:32:01;;;;;;;4.30;3.90;;;;;;;22.33;36.93;94650.69;6183438;28;104005;-57
2022/04/17 11:35:05;;;;;;;6.03;4.00;;;;;;;22.33;36.49;94647.22;6203195;28;103196;-56
2022/04/17 11:38:08;;;;;;;4.03;3.67;;;;;;;22.34;36.21;94646.91;6186345;28;102953;-56
2022/04/17 11:41:11;;;;;;;3.97;3.67;;;;;;;22.35;36.77;94650.38;6177975;28;103289;-56
2022/04/17 11:44:13;;;;;;;4.53;3.60;;;;;;;22.32;36.85;94632.34;6185654;28;103505;-55
2022/04/17 11:47:20;;;;;;;3.90;2.97;;;;;;;22.34;36.81;94632.78;6181848;28;103832;-55
2022/04/17 11:50:26;;;;;;;3.77;3.47;;;;;;;22.36;36.65;94636.75;6178582;28;103012;-56
2022/04/17 11:53:32;;;;;;;4.00;3.70;;;;;;;22.34;36.42;94635.47;6169208;28;105846;-55
2022/04/17 11:56:50;;;;;;;3.40;3.10;;;;;;;22.35;36.10;94634.38;6187162;28;103022;-58
2022/04/17 11:59:57;;;;;;;3.70;3.30;;;;;;;22.38;36.84;94636.41;6184310;28;103979;-55
2022/04/17 12:03:05;;;;;;;4.33;3.77;;;;;;;22.37;36.53;94635.63;6163615;28;103978;-56
2022/04/17 12:06:09;;;;;;;3.67;3.40;;;;;;;22.36;36.46;94633.28;6186079;28;104143;-56
2022/04/17 12:09:15;;;;;;;3.83;3.50;;;;;;;22.34;36.39;94630.91;6168447;28;102992;-56
2022/04/17 12:12:21;;;;;;;3.30;3.03;;;;;;;22.37;36.55;94622.31;6177026;28;104132;-56
2022/04/17 12:15:23;;;;;;;3.10;2.90;;;;;;;22.36;36.22;94622.63;6176846;28;105011;-56
2022/04/17 12:18:25;;;;;;;2.97;2.77;;;;;;;22.37;35.93;94618.84;6187762;28;102960;-56
2022/04/17 12:21:31;;;;;;;2.67;2.37;;;;;;;22.39;36.34;94620.09;6189114;28;104054;-57
2022/04/17 12:24:33;;;;;;;2.40;2.30;;;;;;;22.42;36.41;94621.34;6164847;28;103738;-57
2022/04/17 12:27:35;;;;;;;4.80;2.83;;;;;;;22.41;36.75;94627.78;6167685;28;104179;-56
2022/04/17 12:30:36;;;;;;;3.37;2.90;;;;;;;22.44;36.71;94629.03;6177728;28;103216;-55
2022/04/17 12:33:38;;;;;;;4.17;2.70;;;;;;;22.41;36.80;94620.56;6184474;28;103380;-56
2022/04/17 12:36:42;;;;;;;2.80;2.50;;;;;;;22.40;36.79;94619.00;6166207;28;104401;-57
2022/04/17 12:39:44;;;;;;;3.10;2.80;;;;;;;22.42;36.86;94614.13;6181345;28;103256;-55
2022/04/17 12:42:45;;;;;;;3.10;2.80;;;;;;;22.44;36.77;94613.81;6162960;28;102974;-56
2022/04/17 12:46:00;;;;;;;2.90;2.60;;;;;;;22.45;37.21;94615.38;6183053;28;103048;-56
2022/04/17 12:49:18;;;;;;;2.97;2.77;;;;;;;22.44;37.10;94607.69;6164049;28;102988;-57
2022/04/17 12:52:24;;;;;;;2.60;2.40;;;;;;;22.43;37.34;94601.59;6176176;28;103040;-57
2022/04/17 12:55:36;;;;;;;3.77;2.93;;;;;;;22.46;36.93;94600.94;6185358;28;104398;-56
2022/04/17 12:58:57;;;;;;;3.17;2.70;;;;;;;22.39;37.34;94590.78;6180578;28;104672;-56
2022/04/17 13:02:14;;;;;;;2.60;2.40;;;;;;;22.43;36.94;94596.25;6181443;28;102958;-56
2022/04/17 13:05:23;;;;;;;2.83;2.63;;;;;;;22.43;37.08;94593.59;6175716;28;104011;-56
2022/04/17 13:08:25;;;;;;;3.70;2.50;;;;;;;22.41;36.85;94591.25;6171334;28;103300;-57
2022/04/17 13:11:37;;;;;;;2.57;2.33;;;;;;;22.41;37.32;94585.91;6169599;28;103484;-57
2022/04/17 13:14:55;;;;;;;2.40;2.30;;;;;;;22.42;36.80;94592.03;6183789;28;104440;-56
2022/04/17 13:17:57;;;;;;;2.33;2.13;;;;;;;22.41;36.68;94579.78;6185035;28;103223;-56
2022/04/17 13:20:59;;;;;;;3.10;2.80;;;;;;;22.40;36.98;94583.56;6172092;28;102786;-56
2022/04/17 13:24:01;;;;;;;3.70;2.30;;;;;;;22.41;37.02;94583.25;6176281;28;104333;-56
2022/04/17 13:27:03;;;;;;;2.40;2.20;;;;;;;22.41;36.80;94593.13;6179357;28;103008;-56
2022/04/17 13:30:11;;;;;;;2.40;2.20;;;;;;;22.40;36.77;94588.91;6184353;28;103090;-56
2022/04/17 13:33:13;;;;;;;2.30;2.20;;;;;;;22.41;37.51;94593.91;6174039;28;105042;-58
2022/04/17 13:36:14;;;;;;;2.10;2.00;;;;;;;22.41;36.65;94585.13;6181279;28;104238;-56
2022/04/17 13:39:20;;;;;;;2.73;2.53;;;;;;;22.42;37.51;94579.47;6184684;28;103062;-52
2022/04/17 13:42:22;;;;;;;2.43;2.23;;;;;;;22.43;37.54;94580.25;6182066;28;103733;-56
2022/04/17 13:45:25;;;;;;;3.40;2.27;;;;;;;22.44;37.50;94576.47;6168135;28;103009;-56
2022/04/17 13:48:26;;;;;;;4.37;2.40;;;;;;;22.44;37.91;94581.81;6185212;28;103148;-58
2022/04/17 13:51:29;;;;;;;1.70;1.10;;;;;;;22.34;35.30;94580.25;6183031;28;103212;-57
2022/04/17 13:54:33;;;;;;;2.53;1.60;;;;;;;22.28;35.02;94583.44;6173783;28;103981;-58
2022/04/17 13:57:35;;;;;;;3.20;2.10;;;;;;;22.26;34.38;94590.97;6167896;28;104459;-58
2022/04/17 14:00:37;;;;;;;2.00;1.80;;;;;;;22.18;33.72;94589.09;6176323;28;103208;-57
2022/04/17 14:03:41;;;;;;;1.50;1.40;;;;;;;22.17;34.69;94582.97;6178775;28;102967;-58
2022/04/17 14:06:43;;;;;;;5.80;1.73;;;;;;;22.14;34.09;94580.94;6173059;28;103047;-58
2022/04/17 14:09:45;;;;;;;2.67;1.60;;;;;;;22.15;33.81;94579.06;6167264;28;103004;-58
2022/04/17 14:12:47;;;;;;;3.73;1.80;;;;;;;22.15;33.92;94581.72;6178264;28;103409;-57
2022/04/17 14:15:48;;;;;;;2.80;1.60;;;;;;;22.16;34.53;94577.97;6167896;28;103020;-59
2022/04/17 14:18:50;;;;;;;2.13;2.03;;;;;;;22.13;33.73;94575.94;6159920;28;103104;-58
2022/04/17 14:21:52;;;;;;;3.73;2.40;;;;;;;22.10;33.90;94574.69;6184539;28;103028;-58